sensor_id;sensor_type;location;lat;lon;timestamp;temperature;humidity
24207;DHT22;12351;52.284;9.160;2023-08-30T00:01:31;14.50;99.90
24207;DHT22;12351;52.284;9.160;2023-08-30T00:04:21;14.50;99.90
24207;DHT22;12351;52.284;9.160;2023-08-30T00:07:10;14.50;99.90
24207;DHT22;12351;52.284;9.160;2023-08-30T00:10:00;14.50;99.90
24207;DHT22;12351;52.284;9.160;2023-08-30T00:12:50;14.50;99.90
24207;DHT22;12351;52.284;9.160;2023-08-30T00:15:41;14.60;99.90
24207;DHT22;12351;52.284;9.160;2023-08-30T00:18:34;14.60;99.90
24207;DHT22;12351;52.284;9.160;2023-08-30T00:21:23;14.60;99.90
24207;DHT22;12351;52.284;9.160;2023-08-30T00:24:14;14.70;99.90
24207;DHT22;12351;52.284;9.160;2023-08-30T00:27:04;14.70;99.90
24207;DHT22;12351;52.284;9.160;2023-08-30T00:29:55;14.70;99.90
24207;DHT22;12351;52.284;9.160;2023-08-30T00:32:45;14.70;99.90
24207;DHT22;12351;52.284;9.160;2023-08-30T00:35:37;14.70;99.90
24207;DHT22;12351;52.284;9.160;2023-08-30T00:38:28;14.70;99.90
24207;DHT22;12351;52.284;9.160;2023-08-30T00:41:17;14.70;99.90
24207;DHT22;12351;52.284;9.160;2023-08-30T00:44:05;14.70;99.90
24207;DHT22;12351;52.284;9.160;2023-08-30T00:46:55;14.70;99.90
24207;DHT22;12351;52.284;9.160;2023-08-30T00:49:46;14.80;99.90
24207;DHT22;12351;52.284;9.160;2023-08-30T00:52:38;14.80;99.90
24207;DHT22;12351;52.284;9.160;2023-08-30T00:55:28;14.80;99.90
24207;DHT22;12351;52.284;9.160;2023-08-30T00:58:17;14.80;99.90
24207;DHT22;12351;52.284;9.160;2023-08-30T01:01:04;14.80;99.90
24207;DHT22;12351;52.284;9.160;2023-08-30T01:03:56;14.80;99.90
24207;DHT22;12351;52.284;9.160;2023-08-30T01:06:48;14.80;99.90
24207;DHT22;12351;52.284;9.160;2023-08-30T01:09:39;14.80;99.90
24207;DHT22;12351;52.284;9.160;2023-08-30T01:12:31;14.90;99.90
24207;DHT22;12351;52.284;9.160;2023-08-30T01:15:19;14.90;99.90
24207;DHT22;12351;52.284;9.160;2023-08-30T01:18:09;14.90;99.90
24207;DHT22;12351;52.284;9.160;2023-08-30T01:21:02;14.90;99.90
24207;DHT22;12351;52.284;9.160;2023-08-30T01:23:56;15.00;99.90
24207;DHT22;12351;52.284;9.160;2023-08-30T01:29:37;15.10;99.90
24207;DHT22;12351;52.284;9.160;2023-08-30T01:32:29;15.10;99.90
24207;DHT22;12351;52.284;9.160;2023-08-30T01:35:20;15.20;99.90
24207;DHT22;12351;52.284;9.160;2023-08-30T01:38:10;15.10;99.90
24207;DHT22;12351;52.284;9.160;2023-08-30T01:40:59;15.10;99.90
24207;DHT22;12351;52.284;9.160;2023-08-30T01:43:49;15.10;99.90
24207;DHT22;12351;52.284;9.160;2023-08-30T01:46:43;15.20;99.90
24207;DHT22;12351;52.284;9.160;2023-08-30T01:49:32;15.20;99.90
24207;DHT22;12351;52.284;9.160;2023-08-30T01:52:25;15.20;99.90
24207;DHT22;12351;52.284;9.160;2023-08-30T01:55:14;15.20;99.90
24207;DHT22;12351;52.284;9.160;2023-08-30T01:58:04;15.30;99.90
24207;DHT22;12351;52.284;9.160;2023-08-30T02:00:56;15.30;99.90
24207;DHT22;12351;52.284;9.160;2023-08-30T02:03:46;15.30;99.90
24207;DHT22;12351;52.284;9.160;2023-08-30T02:06:39;15.30;99.90
24207;DHT22;12351;52.284;9.160;2023-08-30T02:09:29;15.30;99.90
24207;DHT22;12351;52.284;9.160;2023-08-30T02:12:19;15.30;99.90
24207;DHT22;12351;52.284;9.160;2023-08-30T02:15:07;15.30;99.90
24207;DHT22;12351;52.284;9.160;2023-08-30T02:18:00;15.40;99.90
24207;DHT22;12351;52.284;9.160;2023-08-30T02:20:49;15.40;99.90
24207;DHT22;12351;52.284;9.160;2023-08-30T02:23:40;15.40;99.90
24207;DHT22;12351;52.284;9.160;2023-08-30T02:26:31;15.40;99.90
24207;DHT22;12351;52.284;9.160;2023-08-30T02:29:20;15.40;99.90
24207;DHT22;12351;52.284;9.160;2023-08-30T02:32:11;15.40;99.90
24207;DHT22;12351;52.284;9.160;2023-08-30T02:35:01;15.40;99.90
24207;DHT22;12351;52.284;9.160;2023-08-30T02:37:51;15.40;99.90
24207;DHT22;12351;52.284;9.160;2023-08-30T02:40:41;15.40;99.90
24207;DHT22;12351;52.284;9.160;2023-08-30T02:43:33;15.40;99.90
24207;DHT22;12351;52.284;9.160;2023-08-30T02:46:19;15.40;99.90
24207;DHT22;12351;52.284;9.160;2023-08-30T02:49:07;15.40;99.90
24207;DHT22;12351;52.284;9.160;2023-08-30T02:52:00;15.40;99.90
24207;DHT22;12351;52.284;9.160;2023-08-30T02:54:50;15.40;99.90
24207;DHT22;12351;52.284;9.160;2023-08-30T02:57:37;15.40;99.90
24207;DHT22;12351;52.284;9.160;2023-08-30T03:00:28;15.40;99.90
24207;DHT22;12351;52.284;9.160;2023-08-30T03:03:17;15.40;99.90
24207;DHT22;12351;52.284;9.160;2023-08-30T03:06:06;15.40;99.90
24207;DHT22;12351;52.284;9.160;2023-08-30T03:08:59;15.40;99.90
24207;DHT22;12351;52.284;9.160;2023-08-30T03:11:49;15.40;99.90
24207;DHT22;12351;52.284;9.160;2023-08-30T03:14:38;15.40;99.90
24207;DHT22;12351;52.284;9.160;2023-08-30T03:17:29;15.40;99.90
24207;DHT22;12351;52.284;9.160;2023-08-30T03:20:18;15.50;99.90
24207;DHT22;12351;52.284;9.160;2023-08-30T03:23:09;15.50;99.90
24207;DHT22;12351;52.284;9.160;2023-08-30T03:25:59;15.50;99.90
24207;DHT22;12351;52.284;9.160;2023-08-30T03:28:52;15.50;99.90
24207;DHT22;12351;52.284;9.160;2023-08-30T03:31:42;15.50;99.90
24207;DHT22;12351;52.284;9.160;2023-08-30T03:34:34;15.50;99.90
24207;DHT22;12351;52.284;9.160;2023-08-30T03:37:23;15.60;99.90
24207;DHT22;12351;52.284;9.160;2023-08-30T03:40:13;15.60;99.90
24207;DHT22;12351;52.284;9.160;2023-08-30T03:43:05;15.60;99.90
24207;DHT22;12351;52.284;9.160;2023-08-30T03:45:59;15.60;99.90
24207;DHT22;12351;52.284;9.160;2023-08-30T03:48:49;15.60;99.90
24207;DHT22;12351;52.284;9.160;2023-08-30T03:51:40;15.60;99.90
24207;DHT22;12351;52.284;9.160;2023-08-30T03:54:31;15.60;99.90
24207;DHT22;12351;52.284;9.160;2023-08-30T03:57:18;15.60;99.90
24207;DHT22;12351;52.284;9.160;2023-08-30T04:00:08;15.60;99.90
24207;DHT22;12351;52.284;9.160;2023-08-30T04:02:56;15.60;99.90
24207;DHT22;12351;52.284;9.160;2023-08-30T04:05:48;15.60;99.90
24207;DHT22;12351;52.284;9.160;2023-08-30T04:08:36;15.60;99.90
24207;DHT22;12351;52.284;9.160;2023-08-30T04:11:28;15.70;99.90
24207;DHT22;12351;52.284;9.160;2023-08-30T04:14:17;15.70;99.90
24207;DHT22;12351;52.284;9.160;2023-08-30T04:17:08;15.70;99.90
24207;DHT22;12351;52.284;9.160;2023-08-30T04:20:00;15.70;99.90
24207;DHT22;12351;52.284;9.160;2023-08-30T04:22:49;15.70;99.90
24207;DHT22;12351;52.284;9.160;2023-08-30T04:25:40;15.70;99.90
24207;DHT22;12351;52.284;9.160;2023-08-30T04:28:34;15.70;99.90
24207;DHT22;12351;52.284;9.160;2023-08-30T04:31:23;15.80;99.90
24207;DHT22;12351;52.284;9.160;2023-08-30T04:34:12;15.70;99.90
24207;DHT22;12351;52.284;9.160;2023-08-30T04:37:03;15.70;99.90
24207;DHT22;12351;52.284;9.160;2023-08-30T04:39:53;15.80;99.90
24207;DHT22;12351;52.284;9.160;2023-08-30T04:42:46;15.80;99.90
24207;DHT22;12351;52.284;9.160;2023-08-30T04:45:36;15.80;99.90
24207;DHT22;12351;52.284;9.160;2023-08-30T04:48:28;15.70;99.90
24207;DHT22;12351;52.284;9.160;2023-08-30T04:51:19;15.70;99.90
24207;DHT22;12351;52.284;9.160;2023-08-30T04:54:08;15.70;99.90
24207;DHT22;12351;52.284;9.160;2023-08-30T04:57:01;15.70;99.90
24207;DHT22;12351;52.284;9.160;2023-08-30T04:59:51;15.70;99.90
24207;DHT22;12351;52.284;9.160;2023-08-30T05:02:38;15.70;99.90
24207;DHT22;12351;52.284;9.160;2023-08-30T05:05:31;15.70;99.90
24207;DHT22;12351;52.284;9.160;2023-08-30T05:08:20;15.70;99.90
24207;DHT22;12351;52.284;9.160;2023-08-30T05:11:07;15.70;99.90
24207;DHT22;12351;52.284;9.160;2023-08-30T05:14:00;15.70;99.90
24207;DHT22;12351;52.284;9.160;2023-08-30T05:16:49;15.70;99.90
24207;DHT22;12351;52.284;9.160;2023-08-30T05:19:36;15.70;99.90
24207;DHT22;12351;52.284;9.160;2023-08-30T05:22:26;15.70;99.90
24207;DHT22;12351;52.284;9.160;2023-08-30T05:25:17;15.70;99.90
24207;DHT22;12351;52.284;9.160;2023-08-30T05:28:07;15.70;99.90
24207;DHT22;12351;52.284;9.160;2023-08-30T05:30:58;15.70;99.90
24207;DHT22;12351;52.284;9.160;2023-08-30T05:33:48;15.70;99.90
24207;DHT22;12351;52.284;9.160;2023-08-30T05:36:34;15.70;99.90
24207;DHT22;12351;52.284;9.160;2023-08-30T05:39:27;15.70;99.90
24207;DHT22;12351;52.284;9.160;2023-08-30T05:42:16;15.70;99.90
24207;DHT22;12351;52.284;9.160;2023-08-30T05:45:08;15.70;99.90
24207;DHT22;12351;52.284;9.160;2023-08-30T05:47:57;15.70;99.90
24207;DHT22;12351;52.284;9.160;2023-08-30T05:50:48;15.70;99.90
24207;DHT22;12351;52.284;9.160;2023-08-30T05:53:38;15.70;99.90
24207;DHT22;12351;52.284;9.160;2023-08-30T05:56:31;15.80;99.90
24207;DHT22;12351;52.284;9.160;2023-08-30T05:59:18;15.70;99.90
24207;DHT22;12351;52.284;9.160;2023-08-30T06:02:09;15.80;99.90
24207;DHT22;12351;52.284;9.160;2023-08-30T06:05:00;15.80;99.90
24207;DHT22;12351;52.284;9.160;2023-08-30T06:07:50;15.80;99.90
24207;DHT22;12351;52.284;9.160;2023-08-30T06:10:43;15.90;99.90
24207;DHT22;12351;52.284;9.160;2023-08-30T06:13:34;15.90;99.90
24207;DHT22;12351;52.284;9.160;2023-08-30T06:16:25;15.90;99.90
24207;DHT22;12351;52.284;9.160;2023-08-30T06:19:12;15.90;99.90
24207;DHT22;12351;52.284;9.160;2023-08-30T06:22:03;15.90;99.90
24207;DHT22;12351;52.284;9.160;2023-08-30T06:24:53;15.90;99.90
24207;DHT22;12351;52.284;9.160;2023-08-30T06:27:54;16.00;99.90
24207;DHT22;12351;52.284;9.160;2023-08-30T06:30:36;16.00;99.90
24207;DHT22;12351;52.284;9.160;2023-08-30T06:33:27;16.10;99.90
24207;DHT22;12351;52.284;9.160;2023-08-30T06:36:16;16.10;99.90
24207;DHT22;12351;52.284;9.160;2023-08-30T06:39:04;16.10;99.90
24207;DHT22;12351;52.284;9.160;2023-08-30T06:41:54;16.10;99.90
24207;DHT22;12351;52.284;9.160;2023-08-30T06:44:46;16.20;99.90
24207;DHT22;12351;52.284;9.160;2023-08-30T06:47:34;16.20;99.90
24207;DHT22;12351;52.284;9.160;2023-08-30T06:50:27;16.20;99.90
24207;DHT22;12351;52.284;9.160;2023-08-30T06:53:16;16.20;99.90
24207;DHT22;12351;52.284;9.160;2023-08-30T06:56:05;16.20;99.90
24207;DHT22;12351;52.284;9.160;2023-08-30T06:58:55;16.30;99.90
24207;DHT22;12351;52.284;9.160;2023-08-30T07:01:44;16.30;99.90
24207;DHT22;12351;52.284;9.160;2023-08-30T07:04:35;16.40;99.90
24207;DHT22;12351;52.284;9.160;2023-08-30T07:07:25;16.40;99.90
24207;DHT22;12351;52.284;9.160;2023-08-30T07:10:17;16.40;99.90
24207;DHT22;12351;52.284;9.160;2023-08-30T07:13:05;16.60;99.90
24207;DHT22;12351;52.284;9.160;2023-08-30T07:15:55;16.60;99.90
24207;DHT22;12351;52.284;9.160;2023-08-30T07:18:46;16.70;99.90
24207;DHT22;12351;52.284;9.160;2023-08-30T07:21:36;16.80;99.90
24207;DHT22;12351;52.284;9.160;2023-08-30T07:24:28;16.90;99.90
24207;DHT22;12351;52.284;9.160;2023-08-30T07:27:17;17.00;99.90
24207;DHT22;12351;52.284;9.160;2023-08-30T07:30:12;17.00;99.90
24207;DHT22;12351;52.284;9.160;2023-08-30T07:33:01;17.10;99.90
24207;DHT22;12351;52.284;9.160;2023-08-30T07:35:53;17.20;99.90
24207;DHT22;12351;52.284;9.160;2023-08-30T07:38:42;17.20;99.90
24207;DHT22;12351;52.284;9.160;2023-08-30T07:41:36;17.30;99.90
24207;DHT22;12351;52.284;9.160;2023-08-30T07:44:26;17.30;99.90
24207;DHT22;12351;52.284;9.160;2023-08-30T07:47:14;17.30;99.90
24207;DHT22;12351;52.284;9.160;2023-08-30T07:50:06;17.40;99.90
24207;DHT22;12351;52.284;9.160;2023-08-30T07:52:56;17.40;99.90
24207;DHT22;12351;52.284;9.160;2023-08-30T07:55:49;17.40;99.90
24207;DHT22;12351;52.284;9.160;2023-08-30T07:58:37;17.40;99.90
24207;DHT22;12351;52.284;9.160;2023-08-30T08:01:26;17.50;99.90
24207;DHT22;12351;52.284;9.160;2023-08-30T08:04:15;17.50;99.90
24207;DHT22;12351;52.284;9.160;2023-08-30T08:07:07;17.50;99.90
24207;DHT22;12351;52.284;9.160;2023-08-30T08:09:56;17.50;99.90
24207;DHT22;12351;52.284;9.160;2023-08-30T08:12:46;17.50;99.90
24207;DHT22;12351;52.284;9.160;2023-08-30T08:15:35;17.50;99.90
24207;DHT22;12351;52.284;9.160;2023-08-30T08:18:24;17.60;99.90
24207;DHT22;12351;52.284;9.160;2023-08-30T08:21:16;17.60;99.90
24207;DHT22;12351;52.284;9.160;2023-08-30T08:24:05;17.60;99.90
24207;DHT22;12351;52.284;9.160;2023-08-30T08:26:57;17.70;99.90
24207;DHT22;12351;52.284;9.160;2023-08-30T08:29:46;17.70;99.90
24207;DHT22;12351;52.284;9.160;2023-08-30T08:32:37;17.70;99.90
24207;DHT22;12351;52.284;9.160;2023-08-30T08:35:27;17.70;99.90
24207;DHT22;12351;52.284;9.160;2023-08-30T08:38:16;17.70;99.90
24207;DHT22;12351;52.284;9.160;2023-08-30T08:41:08;17.80;99.90
24207;DHT22;12351;52.284;9.160;2023-08-30T08:43:58;17.90;99.90
24207;DHT22;12351;52.284;9.160;2023-08-30T08:46:50;18.00;99.90
24207;DHT22;12351;52.284;9.160;2023-08-30T08:49:43;18.10;99.90
24207;DHT22;12351;52.284;9.160;2023-08-30T08:52:33;18.20;99.90
24207;DHT22;12351;52.284;9.160;2023-08-30T08:55:24;18.20;99.90
24207;DHT22;12351;52.284;9.160;2023-08-30T08:58:16;18.30;99.90
24207;DHT22;12351;52.284;9.160;2023-08-30T09:01:04;18.30;99.90
24207;DHT22;12351;52.284;9.160;2023-08-30T09:03:53;18.40;99.90
24207;DHT22;12351;52.284;9.160;2023-08-30T09:06:42;18.50;99.90
24207;DHT22;12351;52.284;9.160;2023-08-30T09:09:33;18.50;99.90
24207;DHT22;12351;52.284;9.160;2023-08-30T09:12:22;18.60;99.90
24207;DHT22;12351;52.284;9.160;2023-08-30T09:15:12;18.60;99.90
24207;DHT22;12351;52.284;9.160;2023-08-30T09:18:02;18.80;99.90
24207;DHT22;12351;52.284;9.160;2023-08-30T09:21:04;18.80;99.90
24207;DHT22;12351;52.284;9.160;2023-08-30T09:23:44;18.90;99.90
24207;DHT22;12351;52.284;9.160;2023-08-30T09:26:34;18.90;99.90
24207;DHT22;12351;52.284;9.160;2023-08-30T09:29:23;18.90;99.90
24207;DHT22;12351;52.284;9.160;2023-08-30T09:32:11;19.00;99.90
24207;DHT22;12351;52.284;9.160;2023-08-30T09:35:03;19.10;99.90
24207;DHT22;12351;52.284;9.160;2023-08-30T09:37:55;19.20;99.90
24207;DHT22;12351;52.284;9.160;2023-08-30T09:40:43;19.20;99.90
24207;DHT22;12351;52.284;9.160;2023-08-30T09:43:34;19.20;99.90
24207;DHT22;12351;52.284;9.160;2023-08-30T09:46:25;19.40;99.90
24207;DHT22;12351;52.284;9.160;2023-08-30T09:49:14;19.40;99.90
24207;DHT22;12351;52.284;9.160;2023-08-30T09:52:03;19.60;99.90
24207;DHT22;12351;52.284;9.160;2023-08-30T09:54:55;19.60;99.90
24207;DHT22;12351;52.284;9.160;2023-08-30T09:57:43;19.70;99.90
24207;DHT22;12351;52.284;9.160;2023-08-30T10:00:33;19.70;99.90
24207;DHT22;12351;52.284;9.160;2023-08-30T10:03:22;19.80;99.90
24207;DHT22;12351;52.284;9.160;2023-08-30T10:06:12;19.80;99.90
24207;DHT22;12351;52.284;9.160;2023-08-30T10:09:03;20.00;99.90
24207;DHT22;12351;52.284;9.160;2023-08-30T10:11:56;20.10;99.90
24207;DHT22;12351;52.284;9.160;2023-08-30T10:14:45;20.10;99.90
24207;DHT22;12351;52.284;9.160;2023-08-30T10:17:34;20.20;99.90
24207;DHT22;12351;52.284;9.160;2023-08-30T10:20:26;20.20;99.90
24207;DHT22;12351;52.284;9.160;2023-08-30T10:23:16;20.30;99.90
24207;DHT22;12351;52.284;9.160;2023-08-30T10:26:06;20.30;99.90
24207;DHT22;12351;52.284;9.160;2023-08-30T10:28:58;20.30;99.90
24207;DHT22;12351;52.284;9.160;2023-08-30T10:31:49;20.30;99.90
24207;DHT22;12351;52.284;9.160;2023-08-30T10:34:38;20.40;99.90
24207;DHT22;12351;52.284;9.160;2023-08-30T10:37:29;20.40;99.90
24207;DHT22;12351;52.284;9.160;2023-08-30T10:40:19;20.40;99.90
24207;DHT22;12351;52.284;9.160;2023-08-30T10:43:07;20.50;99.90
24207;DHT22;12351;52.284;9.160;2023-08-30T10:46:02;20.50;99.90
24207;DHT22;12351;52.284;9.160;2023-08-30T10:48:49;20.60;99.90
24207;DHT22;12351;52.284;9.160;2023-08-30T10:51:38;20.60;99.90
24207;DHT22;12351;52.284;9.160;2023-08-30T10:54:36;20.60;99.90
24207;DHT22;12351;52.284;9.160;2023-08-30T10:57:20;20.60;99.90
24207;DHT22;12351;52.284;9.160;2023-08-30T11:00:19;20.60;99.90
24207;DHT22;12351;52.284;9.160;2023-08-30T11:03:03;20.60;99.90
24207;DHT22;12351;52.284;9.160;2023-08-30T11:05:54;20.60;99.90
24207;DHT22;12351;52.284;9.160;2023-08-30T11:08:43;20.70;99.90
24207;DHT22;12351;52.284;9.160;2023-08-30T11:11:33;20.90;99.90
24207;DHT22;12351;52.284;9.160;2023-08-30T11:14:20;21.00;99.90
24207;DHT22;12351;52.284;9.160;2023-08-30T11:17:11;21.10;99.90
24207;DHT22;12351;52.284;9.160;2023-08-30T11:22:52;21.20;99.90
24207;DHT22;12351;52.284;9.160;2023-08-30T11:25:41;21.30;99.90
24207;DHT22;12351;52.284;9.160;2023-08-30T11:28:35;21.50;99.90
24207;DHT22;12351;52.284;9.160;2023-08-30T11:31:23;21.50;99.90
24207;DHT22;12351;52.284;9.160;2023-08-30T11:34:13;21.60;99.90
24207;DHT22;12351;52.284;9.160;2023-08-30T11:37:01;21.70;99.90
24207;DHT22;12351;52.284;9.160;2023-08-30T11:39:53;21.80;99.90
24207;DHT22;12351;52.284;9.160;2023-08-30T11:42:43;21.70;99.90
24207;DHT22;12351;52.284;9.160;2023-08-30T11:45:35;21.70;99.90
24207;DHT22;12351;52.284;9.160;2023-08-30T11:48:25;21.70;99.90
24207;DHT22;12351;52.284;9.160;2023-08-30T11:51:15;21.80;99.90
24207;DHT22;12351;52.284;9.160;2023-08-30T11:54:05;21.80;99.90
24207;DHT22;12351;52.284;9.160;2023-08-30T11:56:56;21.90;99.90
24207;DHT22;12351;52.284;9.160;2023-08-30T11:59:47;22.00;99.90
24207;DHT22;12351;52.284;9.160;2023-08-30T12:02:37;22.10;99.90
24207;DHT22;12351;52.284;9.160;2023-08-30T12:05:26;22.20;99.90
24207;DHT22;12351;52.284;9.160;2023-08-30T12:08:18;22.40;99.90
24207;DHT22;12351;52.284;9.160;2023-08-30T12:11:17;22.40;99.90
24207;DHT22;12351;52.284;9.160;2023-08-30T12:16:48;22.50;99.90
24207;DHT22;12351;52.284;9.160;2023-08-30T12:19:36;22.60;99.90
24207;DHT22;12351;52.284;9.160;2023-08-30T12:25:18;22.80;99.90
24207;DHT22;12351;52.284;9.160;2023-08-30T12:28:06;22.80;99.90
24207;DHT22;12351;52.284;9.160;2023-08-30T12:30:57;22.80;99.90
24207;DHT22;12351;52.284;9.160;2023-08-30T12:33:47;22.80;99.90
24207;DHT22;12351;52.284;9.160;2023-08-30T12:36:39;22.90;99.90
24207;DHT22;12351;52.284;9.160;2023-08-30T12:39:28;23.00;99.90
24207;DHT22;12351;52.284;9.160;2023-08-30T12:42:18;23.10;99.90
24207;DHT22;12351;52.284;9.160;2023-08-30T12:45:08;23.20;99.90
24207;DHT22;12351;52.284;9.160;2023-08-30T12:47:58;23.20;99.90
24207;DHT22;12351;52.284;9.160;2023-08-30T12:50:47;23.00;99.90
24207;DHT22;12351;52.284;9.160;2023-08-30T12:53:36;23.00;99.90
24207;DHT22;12351;52.284;9.160;2023-08-30T12:56:25;23.10;99.90
24207;DHT22;12351;52.284;9.160;2023-08-30T12:59:14;23.10;99.90
24207;DHT22;12351;52.284;9.160;2023-08-30T13:02:03;23.10;99.90
24207;DHT22;12351;52.284;9.160;2023-08-30T13:04:52;23.10;99.90
24207;DHT22;12351;52.284;9.160;2023-08-30T13:07:40;23.20;99.90
24207;DHT22;12351;52.284;9.160;2023-08-30T13:10:32;23.10;99.90
24207;DHT22;12351;52.284;9.160;2023-08-30T13:13:18;23.20;99.90
24207;DHT22;12351;52.284;9.160;2023-08-30T13:16:08;23.10;99.90
24207;DHT22;12351;52.284;9.160;2023-08-30T13:19:00;23.10;99.90
24207;DHT22;12351;52.284;9.160;2023-08-30T13:21:49;23.10;99.90
24207;DHT22;12351;52.284;9.160;2023-08-30T13:24:42;23.00;99.90
24207;DHT22;12351;52.284;9.160;2023-08-30T13:27:30;23.10;99.90
24207;DHT22;12351;52.284;9.160;2023-08-30T13:30:19;23.00;99.90
24207;DHT22;12351;52.284;9.160;2023-08-30T13:33:08;23.00;99.90
24207;DHT22;12351;52.284;9.160;2023-08-30T13:36:00;23.00;99.90
24207;DHT22;12351;52.284;9.160;2023-08-30T13:38:49;23.00;99.90
24207;DHT22;12351;52.284;9.160;2023-08-30T13:41:37;22.90;99.90
24207;DHT22;12351;52.284;9.160;2023-08-30T13:44:28;22.90;99.90
24207;DHT22;12351;52.284;9.160;2023-08-30T13:47:17;22.90;99.90
24207;DHT22;12351;52.284;9.160;2023-08-30T13:50:06;22.90;99.90
24207;DHT22;12351;52.284;9.160;2023-08-30T13:52:53;22.90;99.90
24207;DHT22;12351;52.284;9.160;2023-08-30T13:58:33;22.70;99.90
24207;DHT22;12351;52.284;9.160;2023-08-30T14:01:23;22.70;99.90
24207;DHT22;12351;52.284;9.160;2023-08-30T14:04:13;22.60;99.90
24207;DHT22;12351;52.284;9.160;2023-08-30T14:07:01;22.50;99.90
24207;DHT22;12351;52.284;9.160;2023-08-30T14:09:51;22.40;99.90
24207;DHT22;12351;52.284;9.160;2023-08-30T14:12:40;22.10;99.90
24207;DHT22;12351;52.284;9.160;2023-08-30T14:15:30;21.70;99.90
24207;DHT22;12351;52.284;9.160;2023-08-30T14:18:20;21.40;99.90
24207;DHT22;12351;52.284;9.160;2023-08-30T14:21:12;21.40;99.90
24207;DHT22;12351;52.284;9.160;2023-08-30T14:24:03;21.40;99.90
24207;DHT22;12351;52.284;9.160;2023-08-30T14:26:50;21.40;99.90
24207;DHT22;12351;52.284;9.160;2023-08-30T14:29:42;21.30;99.90
24207;DHT22;12351;52.284;9.160;2023-08-30T14:32:29;21.20;99.90
24207;DHT22;12351;52.284;9.160;2023-08-30T14:35:24;21.00;99.90
24207;DHT22;12351;52.284;9.160;2023-08-30T14:38:14;21.00;99.90
24207;DHT22;12351;52.284;9.160;2023-08-30T14:41:02;20.90;99.90
24207;DHT22;12351;52.284;9.160;2023-08-30T14:43:52;20.80;99.90
24207;DHT22;12351;52.284;9.160;2023-08-30T14:46:41;20.70;99.90
24207;DHT22;12351;52.284;9.160;2023-08-30T14:49:30;20.60;99.90
24207;DHT22;12351;52.284;9.160;2023-08-30T14:52:21;20.40;99.90
24207;DHT22;12351;52.284;9.160;2023-08-30T14:55:09;20.20;99.90
24207;DHT22;12351;52.284;9.160;2023-08-30T14:58:00;19.90;99.90
24207;DHT22;12351;52.284;9.160;2023-08-30T15:00:50;19.70;99.90
24207;DHT22;12351;52.284;9.160;2023-08-30T15:03:38;19.60;99.90
24207;DHT22;12351;52.284;9.160;2023-08-30T15:06:28;19.50;99.90
24207;DHT22;12351;52.284;9.160;2023-08-30T15:09:17;19.30;99.90
24207;DHT22;12351;52.284;9.160;2023-08-30T15:12:06;19.20;99.90
24207;DHT22;12351;52.284;9.160;2023-08-30T15:14:56;19.20;99.90
24207;DHT22;12351;52.284;9.160;2023-08-30T15:17:46;19.10;99.90
24207;DHT22;12351;52.284;9.160;2023-08-30T15:20:37;19.00;99.90
24207;DHT22;12351;52.284;9.160;2023-08-30T15:23:26;19.00;99.90
24207;DHT22;12351;52.284;9.160;2023-08-30T15:26:17;18.90;99.90
24207;DHT22;12351;52.284;9.160;2023-08-30T15:29:06;18.80;99.90
24207;DHT22;12351;52.284;9.160;2023-08-30T15:31:56;18.70;99.90
24207;DHT22;12351;52.284;9.160;2023-08-30T15:34:48;18.50;99.90
24207;DHT22;12351;52.284;9.160;2023-08-30T15:37:40;18.60;99.90
24207;DHT22;12351;52.284;9.160;2023-08-30T15:40:31;18.70;99.90
24207;DHT22;12351;52.284;9.160;2023-08-30T15:43:18;18.60;99.90
24207;DHT22;12351;52.284;9.160;2023-08-30T15:46:10;18.60;99.90
24207;DHT22;12351;52.284;9.160;2023-08-30T15:48:59;18.50;99.90
24207;DHT22;12351;52.284;9.160;2023-08-30T15:51:47;18.50;99.90
24207;DHT22;12351;52.284;9.160;2023-08-30T15:54:36;18.30;99.90
24207;DHT22;12351;52.284;9.160;2023-08-30T15:57:26;18.10;99.90
24207;DHT22;12351;52.284;9.160;2023-08-30T16:00:17;18.00;99.90
24207;DHT22;12351;52.284;9.160;2023-08-30T16:03:09;18.00;99.90
24207;DHT22;12351;52.284;9.160;2023-08-30T16:05:58;17.90;99.90
24207;DHT22;12351;52.284;9.160;2023-08-30T16:08:46;17.90;99.90
24207;DHT22;12351;52.284;9.160;2023-08-30T16:11:34;17.80;99.90
24207;DHT22;12351;52.284;9.160;2023-08-30T16:14:25;17.80;99.90
24207;DHT22;12351;52.284;9.160;2023-08-30T16:17:18;17.80;99.90
24207;DHT22;12351;52.284;9.160;2023-08-30T16:20:07;17.70;99.90
24207;DHT22;12351;52.284;9.160;2023-08-30T16:22:56;17.70;99.90
24207;DHT22;12351;52.284;9.160;2023-08-30T16:25:47;17.60;99.90
24207;DHT22;12351;52.284;9.160;2023-08-30T16:28:40;17.50;99.90
24207;DHT22;12351;52.284;9.160;2023-08-30T16:31:30;17.50;99.90
24207;DHT22;12351;52.284;9.160;2023-08-30T16:34:21;17.30;99.90
24207;DHT22;12351;52.284;9.160;2023-08-30T16:37:10;17.30;99.90
24207;DHT22;12351;52.284;9.160;2023-08-30T16:39:59;17.30;99.90
24207;DHT22;12351;52.284;9.160;2023-08-30T16:42:50;17.10;99.90
24207;DHT22;12351;52.284;9.160;2023-08-30T16:45:41;17.10;99.90
24207;DHT22;12351;52.284;9.160;2023-08-30T16:48:33;17.00;99.90
24207;DHT22;12351;52.284;9.160;2023-08-30T16:51:21;17.00;99.90
24207;DHT22;12351;52.284;9.160;2023-08-30T16:54:13;17.00;99.90
24207;DHT22;12351;52.284;9.160;2023-08-30T16:57:03;16.90;99.90
24207;DHT22;12351;52.284;9.160;2023-08-30T16:59:55;16.90;99.90
24207;DHT22;12351;52.284;9.160;2023-08-30T17:08:23;16.70;99.90
24207;DHT22;12351;52.284;9.160;2023-08-30T17:11:16;16.60;99.90
24207;DHT22;12351;52.284;9.160;2023-08-30T17:14:05;16.50;99.90
24207;DHT22;12351;52.284;9.160;2023-08-30T17:16:57;16.30;99.90
24207;DHT22;12351;52.284;9.160;2023-08-30T17:19:48;16.30;99.90
24207;DHT22;12351;52.284;9.160;2023-08-30T17:22:38;16.30;99.90
24207;DHT22;12351;52.284;9.160;2023-08-30T17:25:30;16.30;99.90
24207;DHT22;12351;52.284;9.160;2023-08-30T17:28:20;16.30;99.90
24207;DHT22;12351;52.284;9.160;2023-08-30T17:31:09;16.30;99.90
24207;DHT22;12351;52.284;9.160;2023-08-30T17:33:58;16.10;99.90
24207;DHT22;12351;52.284;9.160;2023-08-30T17:36:49;16.10;99.90
24207;DHT22;12351;52.284;9.160;2023-08-30T17:39:41;16.20;99.90
24207;DHT22;12351;52.284;9.160;2023-08-30T17:42:29;16.00;99.90
24207;DHT22;12351;52.284;9.160;2023-08-30T17:45:21;16.10;99.90
24207;DHT22;12351;52.284;9.160;2023-08-30T17:48:09;16.00;99.90
24207;DHT22;12351;52.284;9.160;2023-08-30T17:51:01;15.90;99.90
24207;DHT22;12351;52.284;9.160;2023-08-30T17:53:50;15.90;99.90
24207;DHT22;12351;52.284;9.160;2023-08-30T17:56:39;15.80;99.90
24207;DHT22;12351;52.284;9.160;2023-08-30T17:59:28;15.80;99.90
24207;DHT22;12351;52.284;9.160;2023-08-30T18:02:19;15.80;99.90
24207;DHT22;12351;52.284;9.160;2023-08-30T18:05:09;15.80;99.90
24207;DHT22;12351;52.284;9.160;2023-08-30T18:07:58;15.80;99.90
24207;DHT22;12351;52.284;9.160;2023-08-30T18:10:50;15.70;99.90
24207;DHT22;12351;52.284;9.160;2023-08-30T18:13:41;15.50;99.90